Aérodrome :
LOGIN :

S'inscrire | Disclaimer

   EN    FR    IT 

 










Légende :    VFR   VFR Marginal   IFR   IFR Intensif   IFR Très Intensif
Visi : 
Plafond : 
>= 8 km
>= 3000ft
5 à 8 km
1000 à 3000 ft
1500m à 5 km
500 à 1000 ft
800 à 1500m
200 à 500 ft
< 800m
< 200 ft
Symboles :   Orages  Brouillard  Fortes neiges  Fortes précipitations  Vent > 20 kt
SIGMETs :   Divers  Orages  Givrage  Turbulence  Onde Orograph.  Cendres Volcan.






- Altitude de l'aérodrome : 375 ft
- Code IATA : MST


EHBK - Maastricht Aachen

DERNIER METAR :
  • 210525Z AUTO 09007KT 050V120 6000 NSC M01/M02 Q1009 TEMPO 4000 BR

METARs EXPIRÉS :
  • 210455Z AUTO 08005KT 6000 NSC M02/M02 Q1009 TEMPO 6000 NSW
  • 210425Z AUTO 08005KT 7000 NSC M02/M03 Q1010
  • 210355Z AUTO 10004KT 7000 NSC M01/M02 Q1010
  • 210325Z AUTO 11008KT 8000 NSC M01/M02 Q1010
  • 210255Z AUTO 10006KT 8000 NSC M01/M02 Q1010

TAF TAF EHBK
Valide du 21 à 06h jusqu'au 22 à 12h UTC


210511Z 2106/2212 09007KT 6000 NSC
BECMG 2106/2109 CAVOK
BECMG 2118/2121 17010KT



MET'MAP, la Météo Aéronautique d'un coup d'oeil ! - Copyright ORBIFLY Décembre 2007 - Disclaimer

ORBIFLY MET'MAP TEAM :

Programmation & Développement : Alexandra Zaïnal
Conception & Développement : Baudouin d'Aumeries
Co-Programmation & Développement : Marc-Olivier Méhu
Soutien technique & logistique : Manuel Goepfert

Contact : metmap@orbifly.com




SOURCES & CREDITS :

   NOAA